Logo AVAMET
Benvolgut visitant, si us plau, ingressa Recuperar contrasenya
AVAMET paisatges

Gandia Escola Pia

Dades diàries. Acumulats / Últims 30 dies disponibles

Data Temperatura (°C) Humitat rel. (%) Pressió rel. (hPa) Vent (km/h) Precipitació
Mínima Mitjana Màxima Amplitud
tèrmica
Mínima Mitjana Màxima Mínima Mitjana Màxima Predom. Mitjana Ràfega
màxima
Total
(mm)
Índex-n
Mínima Mitjana Màxima Mínima Mitjana Màxima n
0 a 1
P0 max
mm 5'
Dades mensuals acumulades fins l'últim dia disponible
02/2020 7,9 11,7 16,4 15,4 14,3 20,0 26,7 18,8 21 63 92 1.020 1.026 1.033   2,6 35,4 1,4
Dades anuals acumulades fins l'últim dia disponible
2020 4,5 10,0 16,4 13,4 12,6 17,5 26,7 22,2 21 65 93 1.012 1.025 1.034   3,3 228,5 241,4
Últims 30 dies disponibles
20-02-2020 8,7     12,7     17,2 8,5 56 71 82 1.024 1.026 1.028 SSW 2,1 14,5 0,2
19-02-2020 10,7     13,4     15,7 5,0 62 76 83 1.029 1.031 1.033 N 1,9 14,5 0,0
18-02-2020 13,4     14,1     14,8 1,4 71 77 86 1.030 1.031 1.033 E 3,2 22,5 0,8
17-02-2020 10,1     16,4     24,8 14,7 30 67 92 1.022 1.025 1.029 SW 2,7 17,7 0,4
16-02-2020 10,8     14,0     20,7 9,9 59 81 90 1.024 1.026 1.028 E 1,6 11,3 0,0
15-02-2020 9,5     13,8     18,6 9,1 58 69 81 1.024 1.026 1.027 SW 1,8 12,9 0,0
14-02-2020 12,3     15,8     20,4 8,1 41 55 67 1.023 1.025 1.026 SSW 1,6 12,9 0,0
13-02-2020 11,1     16,7     22,6 11,5 37 60 80 1.020 1.022 1.024 SW 2,3 20,9 0,0
12-02-2020 12,2     14,7     19,1 6,9 54 70 79 1.023 1.024 1.025 SW 1,8 17,7 0,0
11-02-2020 13,8     18,8     24,3 10,5 37 51 78 1.021 1.024 1.026 E 2,9 27,4 0,0
10-02-2020 12,8     18,8     24,6 11,8 38 48 63 1.026 1.028 1.031 W 4,5 30,6 0,0
09-02-2020 9,9     13,1     16,2 6,3 61 72 81 1.027 1.029 1.031 E 1,4 12,9 0,0
08-02-2020 7,9     11,8     15,7 7,8 60 71 77 1.024 1.025 1.027 SSW 1,8 16,1 0,0
07-02-2020 8,9     11,5     15,7 6,8 53 67 75 1.023 1.025 1.026 SW 1,8 11,3 0,0
06-02-2020 8,3     11,1     14,3 6,0 63 73 81 1.025 1.027 1.029 SSW 2,6 16,1 0,0
05-02-2020 10,5     12,8     16,3 5,8 57 68 77 1.027 1.029 1.031 E 2,3 17,7 0,0
04-02-2020 16,3     21,5     26,7 10,4 21 34 57 1.021 1.024 1.027 W 4,3 27,4 0,0
03-02-2020 13,9     18,5     25,2 11,3 34 52 62 1.026 1.028 1.029 SSW 1,9 11,3 0,0
02-02-2020 16,3     19,2     24,3 8,0 41 53 64 1.026 1.027 1.029 SW 3,7 27,4 0,0
01-02-2020 16,4     19,6     23,1 6,7 44 52 62 1.021 1.023 1.026 W 5,6 35,4 0,0
31-01-2020 15,3     17,6     20,5 5,2 46 50 56 1.021 1.022 1.024 OSO 7,6 38,6 0,0
30-01-2020 15,9     18,2     22,1 6,2 34 46 54 1.020 1.022 1.023 SW 6,0 38,6 0,0
29-01-2020 15,8     18,0     21,5 5,7 43 51 57 1.021 1.022 1.023 W 6,3 33,8 0,0
28-01-2020 14,2     16,6     18,4 4,2 49 52 57 1.020 1.021 1.023 W 6,4 57,9 0,0
27-01-2020 9,9     13,6     17,7 7,8 41 51 62 1.021 1.023 1.025 W 4,8 33,8 0,0
26-01-2020 10,3     13,3     17,8 7,5 45 68 88 1.019 1.021 1.025 SW 3,4 32,2 0,2
25-01-2020 10,1     12,1     14,8 4,7 77 85 88 1.017 1.019 1.021 SSW 1,3 9,7 0,0
24-01-2020 9,1     11,3     13,6 4,5 80 85 88 1.021 1.022 1.023 SSW 1,8 11,3 0,0
23-01-2020 7,1     9,8     12,7 5,6 75 82 88 1.019 1.021 1.023 SSW 2,1 9,7 0,0
22-01-2020 8,3     10,4     13,1 4,8 79 85 88 1.017 1.019 1.020 SSW 1,8 12,9 1,6
Últims 13 mesos disponibles
01/2020 4,5 8,9 15,9 12,1 12,6 15,9 22,1 17,6 42 67 85 1.015 1.025 1.033 SSW 3,8 240,0
12/2019 6,8 12,0 20,1 14,7 13,7 18,1 26,1 19,3 37 60 81 1.002 1.019 1.033 SW 4,7 83,7 233,2
11/2019 8,3 13,6 22,3 16,5 15,3 19,9 27,3 19,0 36 47 65 999 1.011 1.018 SW 6,4 57,9 7,4
10/2019 13,3 17,4 21,2 21,0 16,5 25,0 32,2 18,9 36 60 77 1.008 1.016 1.022 E 3,0 48,3 55,8
09/2019 15,4 21,0 23,6 24,4 23,3 28,0 34,9 19,5 38 68 85 1.010 1.017 1.024 E 3,9 54,7 95,8
08/2019 19,1 23,3 27,3 27,3 27,7 31,8 39,1 20,0 45 65 74 1.010 1.015 1.020 E 3,6 40,2 55,8
07/2019 21,8 23,8 26,7 27,6 28,5 31,7 38,1 16,3 38 63 75 1.005 1.014 1.021 E 4,2 43,5 0,8
06/2019 14,3 19,0 22,7 23,4 21,4 28,0 34,7 20,4 31 61 78 1.008 1.015 1.021 E 4,0 48,3 0,0
05/2019 10,4 15,6 22,6 19,8 18,8 24,5 31,9 21,5 43 62 77 1.005 1.015 1.024 E 4,0 46,7 8,2
04/2019 10,2 12,8 16,5 16,3 14,6 20,3 29,3 19,1 34 63 92 999 1.013 1.025 SW 5,1 48,3 206,4
03/2019 7,1 10,6 17,6 15,1 14,2 20,0 28,4 21,3 34 57 88 1.010 1.022 1.029 E 3,4 48,3 47,0
02/2019 6,4 8,6 12,4 12,8 13,3 17,4 23,3 16,9 30 60 78 995 1.025 1.033 SSW 3,7 69,2 0,0
01/2019 2,4 8,4 14,4 12,1 11,1 16,5 20,8 18,4 36 54 78 1.002 1.019 1.030 SSW 3,8 66,0 0,4
Tots els anys disponibles
2019 2,4 15,5 27,3 19,3 11,1 23,5 39,1 36,7 30 60 92 995 1.017 1.033 E 4,1 83,7 710,8
Temperatura (°C)
Humitat relativa (%)
Velocitat del vent i ràfega màxima (km/h)
Direcció del vent (°)
Pressió (hPa)
Precipitació (mm)
Nota sobre les dades: s'avisa a l'usuari de la provisionalitat i no oficialitat d'aquestes dades
Logo AVAMET blanc
Web allotjada a Sollutia
Llicència de Creative CommonsLa web d'AVAMET i els seus continguts estan subjectes a una llicència de
Reconeixement - No Comercial - Compartir igual
Últimes estacions:  Sorita (AVAMET), Gorga (Soci), Massalavés - Ajuntament (Soci/Inforatge), Albuixech - Polígon (Inforatge), La Torre d'en Besora (Ajuntament soci), Xixona - Sogorb Barranc Blanc (Soci), Pedreguer - Patronat (Soci) - - -